sensor_id;sensor_type;location;lat;lon;timestamp;P1;durP1;ratioP1;P2;durP2;ratioP2
2998;SDS011;1509;51.964;7.628;2023-07-24T00:02:01;10.50;;;8.10;;
2998;SDS011;1509;51.964;7.628;2023-07-24T00:04:30;12.43;;;9.10;;
2998;SDS011;1509;51.964;7.628;2023-07-24T00:06:56;12.43;;;8.97;;
2998;SDS011;1509;51.964;7.628;2023-07-24T00:09:22;10.93;;;8.33;;
2998;SDS011;1509;51.964;7.628;2023-07-24T00:11:48;11.80;;;7.73;;
2998;SDS011;1509;51.964;7.628;2023-07-24T00:14:14;12.37;;;8.40;;
2998;SDS011;1509;51.964;7.628;2023-07-24T00:16:41;12.83;;;7.50;;
2998;SDS011;1509;51.964;7.628;2023-07-24T00:19:06;13.03;;;9.10;;
2998;SDS011;1509;51.964;7.628;2023-07-24T00:21:35;9.43;;;7.47;;
2998;SDS011;1509;51.964;7.628;2023-07-24T00:24:00;12.47;;;8.77;;
2998;SDS011;1509;51.964;7.628;2023-07-24T00:26:26;15.03;;;9.17;;
2998;SDS011;1509;51.964;7.628;2023-07-24T00:28:51;10.30;;;8.10;;
2998;SDS011;1509;51.964;7.628;2023-07-24T00:31:17;11.60;;;7.97;;
2998;SDS011;1509;51.964;7.628;2023-07-24T00:33:42;12.47;;;7.97;;
2998;SDS011;1509;51.964;7.628;2023-07-24T00:36:08;11.33;;;7.77;;
2998;SDS011;1509;51.964;7.628;2023-07-24T00:38:34;8.90;;;7.10;;
2998;SDS011;1509;51.964;7.628;2023-07-24T00:40:59;9.40;;;7.20;;
2998;SDS011;1509;51.964;7.628;2023-07-24T00:43:25;11.70;;;7.87;;
2998;SDS011;1509;51.964;7.628;2023-07-24T00:45:50;10.27;;;7.90;;
2998;SDS011;1509;51.964;7.628;2023-07-24T00:48:16;9.60;;;7.43;;
2998;SDS011;1509;51.964;7.628;2023-07-24T00:50:42;13.93;;;7.10;;
2998;SDS011;1509;51.964;7.628;2023-07-24T00:53:09;14.20;;;6.70;;
2998;SDS011;1509;51.964;7.628;2023-07-24T00:55:36;7.50;;;5.80;;
2998;SDS011;1509;51.964;7.628;2023-07-24T00:58:03;8.63;;;6.00;;
2998;SDS011;1509;51.964;7.628;2023-07-24T01:00:29;8.43;;;5.53;;
2998;SDS011;1509;51.964;7.628;2023-07-24T01:02:55;7.07;;;5.77;;
2998;SDS011;1509;51.964;7.628;2023-07-24T01:05:22;7.87;;;5.73;;
2998;SDS011;1509;51.964;7.628;2023-07-24T01:07:50;9.80;;;5.67;;
2998;SDS011;1509;51.964;7.628;2023-07-24T01:10:17;7.40;;;5.30;;
2998;SDS011;1509;51.964;7.628;2023-07-24T01:12:51;8.07;;;5.10;;
2998;SDS011;1509;51.964;7.628;2023-07-24T01:17:59;7.70;;;5.30;;
2998;SDS011;1509;51.964;7.628;2023-07-24T01:20:26;9.40;;;5.70;;
2998;SDS011;1509;51.964;7.628;2023-07-24T01:25:33;6.23;;;4.53;;
2998;SDS011;1509;51.964;7.628;2023-07-24T01:28:00;7.95;;;5.55;;
2998;SDS011;1509;51.964;7.628;2023-07-24T01:30:26;7.80;;;4.63;;
2998;SDS011;1509;51.964;7.628;2023-07-24T01:32:52;6.70;;;5.03;;
2998;SDS011;1509;51.964;7.628;2023-07-24T01:35:17;7.97;;;4.33;;
2998;SDS011;1509;51.964;7.628;2023-07-24T01:37:43;6.73;;;4.40;;
2998;SDS011;1509;51.964;7.628;2023-07-24T01:40:10;6.27;;;4.43;;
2998;SDS011;1509;51.964;7.628;2023-07-24T01:42:36;9.83;;;5.20;;
2998;SDS011;1509;51.964;7.628;2023-07-24T01:45:03;7.17;;;4.80;;
2998;SDS011;1509;51.964;7.628;2023-07-24T01:47:29;7.13;;;4.70;;
2998;SDS011;1509;51.964;7.628;2023-07-24T01:49:55;9.77;;;5.17;;
2998;SDS011;1509;51.964;7.628;2023-07-24T01:52:21;5.30;;;4.37;;
2998;SDS011;1509;51.964;7.628;2023-07-24T01:54:47;6.33;;;4.57;;
2998;SDS011;1509;51.964;7.628;2023-07-24T01:57:13;6.23;;;4.27;;
2998;SDS011;1509;51.964;7.628;2023-07-24T01:59:38;6.40;;;4.13;;
2998;SDS011;1509;51.964;7.628;2023-07-24T02:02:04;7.70;;;4.73;;
2998;SDS011;1509;51.964;7.628;2023-07-24T02:04:31;6.93;;;4.33;;
2998;SDS011;1509;51.964;7.628;2023-07-24T02:06:56;6.13;;;3.97;;
2998;SDS011;1509;51.964;7.628;2023-07-24T02:09:22;9.53;;;4.50;;
2998;SDS011;1509;51.964;7.628;2023-07-24T02:11:48;7.20;;;4.80;;
2998;SDS011;1509;51.964;7.628;2023-07-24T02:14:13;8.40;;;4.67;;
2998;SDS011;1509;51.964;7.628;2023-07-24T02:16:41;7.10;;;3.90;;
2998;SDS011;1509;51.964;7.628;2023-07-24T02:19:07;6.07;;;4.27;;
2998;SDS011;1509;51.964;7.628;2023-07-24T02:21:33;9.60;;;4.03;;
2998;SDS011;1509;51.964;7.628;2023-07-24T02:23:58;8.20;;;4.57;;
2998;SDS011;1509;51.964;7.628;2023-07-24T02:26:24;7.27;;;4.10;;
2998;SDS011;1509;51.964;7.628;2023-07-24T02:28:50;8.43;;;4.30;;
2998;SDS011;1509;51.964;7.628;2023-07-24T02:31:15;9.03;;;4.63;;
2998;SDS011;1509;51.964;7.628;2023-07-24T02:33:41;8.77;;;4.57;;
2998;SDS011;1509;51.964;7.628;2023-07-24T02:36:07;8.27;;;4.37;;
2998;SDS011;1509;51.964;7.628;2023-07-24T02:38:32;4.53;;;3.83;;
2998;SDS011;1509;51.964;7.628;2023-07-24T02:40:58;5.63;;;4.43;;
2998;SDS011;1509;51.964;7.628;2023-07-24T02:43:23;8.97;;;4.30;;
2998;SDS011;1509;51.964;7.628;2023-07-24T02:45:49;6.97;;;4.13;;
2998;SDS011;1509;51.964;7.628;2023-07-24T02:48:14;9.23;;;4.10;;
2998;SDS011;1509;51.964;7.628;2023-07-24T02:50:40;5.93;;;4.30;;
2998;SDS011;1509;51.964;7.628;2023-07-24T02:53:06;6.60;;;4.33;;
2998;SDS011;1509;51.964;7.628;2023-07-24T02:55:31;7.97;;;5.30;;
2998;SDS011;1509;51.964;7.628;2023-07-24T02:57:57;6.90;;;4.70;;
2998;SDS011;1509;51.964;7.628;2023-07-24T03:00:23;9.67;;;4.57;;
2998;SDS011;1509;51.964;7.628;2023-07-24T03:02:48;8.77;;;5.10;;
2998;SDS011;1509;51.964;7.628;2023-07-24T03:05:14;9.23;;;4.57;;
2998;SDS011;1509;51.964;7.628;2023-07-24T03:07:39;7.93;;;4.73;;
2998;SDS011;1509;51.964;7.628;2023-07-24T03:10:05;6.97;;;4.10;;
2998;SDS011;1509;51.964;7.628;2023-07-24T03:12:32;7.77;;;5.13;;
2998;SDS011;1509;51.964;7.628;2023-07-24T03:14:58;7.30;;;4.60;;
2998;SDS011;1509;51.964;7.628;2023-07-24T03:17:23;7.57;;;4.00;;
2998;SDS011;1509;51.964;7.628;2023-07-24T03:19:49;5.87;;;4.03;;
2998;SDS011;1509;51.964;7.628;2023-07-24T03:22:15;8.73;;;5.00;;
2998;SDS011;1509;51.964;7.628;2023-07-24T03:24:40;6.13;;;3.97;;
2998;SDS011;1509;51.964;7.628;2023-07-24T03:27:06;6.90;;;4.03;;
2998;SDS011;1509;51.964;7.628;2023-07-24T03:29:31;7.80;;;3.53;;
2998;SDS011;1509;51.964;7.628;2023-07-24T03:31:57;5.97;;;4.10;;
2998;SDS011;1509;51.964;7.628;2023-07-24T03:34:23;11.00;;;4.30;;
2998;SDS011;1509;51.964;7.628;2023-07-24T03:36:48;7.30;;;4.50;;
2998;SDS011;1509;51.964;7.628;2023-07-24T03:39:14;7.53;;;4.67;;
2998;SDS011;1509;51.964;7.628;2023-07-24T03:41:41;6.80;;;3.90;;
2998;SDS011;1509;51.964;7.628;2023-07-24T03:44:08;8.17;;;5.03;;
2998;SDS011;1509;51.964;7.628;2023-07-24T03:46:33;8.40;;;4.60;;
2998;SDS011;1509;51.964;7.628;2023-07-24T03:49:00;6.00;;;3.87;;
2998;SDS011;1509;51.964;7.628;2023-07-24T03:51:28;5.50;;;3.63;;
2998;SDS011;1509;51.964;7.628;2023-07-24T03:53:53;6.00;;;3.97;;
2998;SDS011;1509;51.964;7.628;2023-07-24T03:56:19;9.83;;;4.53;;
2998;SDS011;1509;51.964;7.628;2023-07-24T03:58:45;6.23;;;4.50;;
2998;SDS011;1509;51.964;7.628;2023-07-24T04:01:10;7.37;;;4.90;;
2998;SDS011;1509;51.964;7.628;2023-07-24T04:03:36;7.70;;;4.20;;
2998;SDS011;1509;51.964;7.628;2023-07-24T04:06:02;6.47;;;4.13;;
2998;SDS011;1509;51.964;7.628;2023-07-24T04:08:27;9.37;;;4.60;;
2998;SDS011;1509;51.964;7.628;2023-07-24T04:10:53;7.30;;;4.93;;
2998;SDS011;1509;51.964;7.628;2023-07-24T04:13:21;8.43;;;4.87;;
2998;SDS011;1509;51.964;7.628;2023-07-24T04:15:47;6.87;;;4.37;;
2998;SDS011;1509;51.964;7.628;2023-07-24T04:18:12;7.17;;;5.87;;
2998;SDS011;1509;51.964;7.628;2023-07-24T04:20:38;6.83;;;5.07;;
2998;SDS011;1509;51.964;7.628;2023-07-24T04:23:03;7.30;;;5.30;;
2998;SDS011;1509;51.964;7.628;2023-07-24T04:25:29;12.73;;;5.87;;
2998;SDS011;1509;51.964;7.628;2023-07-24T04:27:54;9.53;;;5.37;;
2998;SDS011;1509;51.964;7.628;2023-07-24T04:30:20;7.30;;;4.63;;
2998;SDS011;1509;51.964;7.628;2023-07-24T04:32:46;11.83;;;6.10;;
2998;SDS011;1509;51.964;7.628;2023-07-24T04:35:11;9.67;;;5.47;;
2998;SDS011;1509;51.964;7.628;2023-07-24T04:37:37;11.63;;;6.63;;
2998;SDS011;1509;51.964;7.628;2023-07-24T04:40:03;10.33;;;5.27;;
2998;SDS011;1509;51.964;7.628;2023-07-24T04:42:29;18.57;;;6.30;;
2998;SDS011;1509;51.964;7.628;2023-07-24T04:44:54;9.20;;;5.70;;
2998;SDS011;1509;51.964;7.628;2023-07-24T04:47:20;18.20;;;6.40;;
2998;SDS011;1509;51.964;7.628;2023-07-24T04:49:45;9.37;;;5.63;;
2998;SDS011;1509;51.964;7.628;2023-07-24T04:52:11;7.70;;;5.23;;
2998;SDS011;1509;51.964;7.628;2023-07-24T04:54:37;8.37;;;4.90;;
2998;SDS011;1509;51.964;7.628;2023-07-24T04:57:02;10.47;;;5.70;;
2998;SDS011;1509;51.964;7.628;2023-07-24T04:59:28;9.00;;;5.00;;
2998;SDS011;1509;51.964;7.628;2023-07-24T05:01:54;8.30;;;5.83;;
2998;SDS011;1509;51.964;7.628;2023-07-24T05:04:19;8.73;;;5.20;;
2998;SDS011;1509;51.964;7.628;2023-07-24T05:06:45;13.03;;;6.60;;
2998;SDS011;1509;51.964;7.628;2023-07-24T05:09:10;14.67;;;6.53;;
2998;SDS011;1509;51.964;7.628;2023-07-24T05:11:36;9.53;;;6.60;;
2998;SDS011;1509;51.964;7.628;2023-07-24T05:14:02;12.00;;;6.50;;
2998;SDS011;1509;51.964;7.628;2023-07-24T05:16:27;9.20;;;6.20;;
2998;SDS011;1509;51.964;7.628;2023-07-24T05:18:53;12.80;;;6.40;;
2998;SDS011;1509;51.964;7.628;2023-07-24T05:21:18;9.50;;;5.97;;
2998;SDS011;1509;51.964;7.628;2023-07-24T05:23:44;11.07;;;7.30;;
2998;SDS011;1509;51.964;7.628;2023-07-24T05:26:09;11.70;;;6.70;;
2998;SDS011;1509;51.964;7.628;2023-07-24T05:28:35;8.80;;;6.90;;
2998;SDS011;1509;51.964;7.628;2023-07-24T05:31:01;12.33;;;6.30;;
2998;SDS011;1509;51.964;7.628;2023-07-24T05:33:28;9.60;;;6.00;;
2998;SDS011;1509;51.964;7.628;2023-07-24T05:36:00;9.70;;;6.27;;
2998;SDS011;1509;51.964;7.628;2023-07-24T05:38:27;12.00;;;6.67;;
2998;SDS011;1509;51.964;7.628;2023-07-24T05:40:59;8.30;;;5.90;;
2998;SDS011;1509;51.964;7.628;2023-07-24T05:43:27;13.70;;;7.80;;
2998;SDS011;1509;51.964;7.628;2023-07-24T05:45:53;14.80;;;7.20;;
2998;SDS011;1509;51.964;7.628;2023-07-24T05:48:19;11.13;;;6.60;;
2998;SDS011;1509;51.964;7.628;2023-07-24T05:50:45;10.67;;;6.63;;
2998;SDS011;1509;51.964;7.628;2023-07-24T05:53:11;10.50;;;6.40;;
2998;SDS011;1509;51.964;7.628;2023-07-24T05:55:36;11.10;;;6.50;;
2998;SDS011;1509;51.964;7.628;2023-07-24T05:58:02;10.27;;;7.03;;
2998;SDS011;1509;51.964;7.628;2023-07-24T06:00:27;10.20;;;6.80;;
2998;SDS011;1509;51.964;7.628;2023-07-24T06:02:53;12.33;;;6.90;;
2998;SDS011;1509;51.964;7.628;2023-07-24T06:05:19;10.47;;;7.87;;
2998;SDS011;1509;51.964;7.628;2023-07-24T06:07:45;11.37;;;7.80;;
2998;SDS011;1509;51.964;7.628;2023-07-24T06:10:11;13.53;;;7.07;;
2998;SDS011;1509;51.964;7.628;2023-07-24T06:12:37;19.83;;;8.77;;
2998;SDS011;1509;51.964;7.628;2023-07-24T06:15:03;12.43;;;7.93;;
2998;SDS011;1509;51.964;7.628;2023-07-24T06:17:29;13.23;;;8.10;;
2998;SDS011;1509;51.964;7.628;2023-07-24T06:19:58;12.87;;;9.10;;
2998;SDS011;1509;51.964;7.628;2023-07-24T06:22:23;17.17;;;9.80;;
2998;SDS011;1509;51.964;7.628;2023-07-24T06:24:49;14.93;;;9.90;;
2998;SDS011;1509;51.964;7.628;2023-07-24T06:27:15;18.10;;;9.50;;
2998;SDS011;1509;51.964;7.628;2023-07-24T06:29:41;15.47;;;10.27;;
2998;SDS011;1509;51.964;7.628;2023-07-24T06:32:07;16.53;;;10.00;;
2998;SDS011;1509;51.964;7.628;2023-07-24T06:34:33;12.53;;;9.73;;
2998;SDS011;1509;51.964;7.628;2023-07-24T06:36:59;14.30;;;10.93;;
2998;SDS011;1509;51.964;7.628;2023-07-24T06:39:24;16.40;;;10.80;;
2998;SDS011;1509;51.964;7.628;2023-07-24T06:41:53;18.13;;;12.60;;
2998;SDS011;1509;51.964;7.628;2023-07-24T06:44:19;20.80;;;11.73;;
2998;SDS011;1509;51.964;7.628;2023-07-24T06:46:45;17.73;;;12.50;;
2998;SDS011;1509;51.964;7.628;2023-07-24T06:49:10;17.57;;;11.90;;
2998;SDS011;1509;51.964;7.628;2023-07-24T06:51:36;16.33;;;11.63;;
2998;SDS011;1509;51.964;7.628;2023-07-24T06:54:03;17.53;;;11.57;;
2998;SDS011;1509;51.964;7.628;2023-07-24T06:56:29;21.63;;;11.90;;
2998;SDS011;1509;51.964;7.628;2023-07-24T06:58:54;17.03;;;13.03;;
2998;SDS011;1509;51.964;7.628;2023-07-24T07:01:20;19.70;;;12.30;;
2998;SDS011;1509;51.964;7.628;2023-07-24T07:03:46;22.27;;;12.57;;
2998;SDS011;1509;51.964;7.628;2023-07-24T07:06:12;19.23;;;15.05;;
2998;SDS011;1509;51.964;7.628;2023-07-24T07:08:37;24.20;;;12.50;;
2998;SDS011;1509;51.964;7.628;2023-07-24T07:11:03;16.20;;;12.07;;
2998;SDS011;1509;51.964;7.628;2023-07-24T07:13:29;14.90;;;11.20;;
2998;SDS011;1509;51.964;7.628;2023-07-24T07:15:55;15.73;;;11.20;;
2998;SDS011;1509;51.964;7.628;2023-07-24T07:18:21;16.83;;;11.10;;
2998;SDS011;1509;51.964;7.628;2023-07-24T07:20:47;14.17;;;11.47;;
2998;SDS011;1509;51.964;7.628;2023-07-24T07:23:14;15.30;;;11.30;;
2998;SDS011;1509;51.964;7.628;2023-07-24T07:25:40;15.67;;;11.73;;
2998;SDS011;1509;51.964;7.628;2023-07-24T07:28:08;21.93;;;11.73;;
2998;SDS011;1509;51.964;7.628;2023-07-24T07:30:34;18.33;;;10.80;;
2998;SDS011;1509;51.964;7.628;2023-07-24T07:32:59;14.47;;;11.00;;
2998;SDS011;1509;51.964;7.628;2023-07-24T07:35:25;15.63;;;11.40;;
2998;SDS011;1509;51.964;7.628;2023-07-24T07:37:51;17.63;;;10.70;;
2998;SDS011;1509;51.964;7.628;2023-07-24T07:40:16;14.83;;;11.00;;
2998;SDS011;1509;51.964;7.628;2023-07-24T07:42:42;15.97;;;12.27;;
2998;SDS011;1509;51.964;7.628;2023-07-24T07:45:09;18.30;;;12.43;;
2998;SDS011;1509;51.964;7.628;2023-07-24T07:47:35;16.27;;;11.97;;
2998;SDS011;1509;51.964;7.628;2023-07-24T07:50:01;15.97;;;11.67;;
2998;SDS011;1509;51.964;7.628;2023-07-24T07:52:27;23.27;;;12.57;;
2998;SDS011;1509;51.964;7.628;2023-07-24T07:54:52;17.10;;;12.30;;
2998;SDS011;1509;51.964;7.628;2023-07-24T07:57:18;15.37;;;12.10;;
2998;SDS011;1509;51.964;7.628;2023-07-24T07:59:43;18.30;;;12.57;;
2998;SDS011;1509;51.964;7.628;2023-07-24T08:02:09;16.17;;;11.93;;
2998;SDS011;1509;51.964;7.628;2023-07-24T08:04:35;12.70;;;9.63;;
2998;SDS011;1509;51.964;7.628;2023-07-24T08:07:00;13.97;;;8.90;;
2998;SDS011;1509;51.964;7.628;2023-07-24T08:09:26;10.10;;;7.37;;
2998;SDS011;1509;51.964;7.628;2023-07-24T08:11:52;9.10;;;5.33;;
2998;SDS011;1509;51.964;7.628;2023-07-24T08:14:18;9.30;;;5.40;;
2998;SDS011;1509;51.964;7.628;2023-07-24T08:16:44;7.65;;;5.78;;
2998;SDS011;1509;51.964;7.628;2023-07-24T08:19:09;5.10;;;4.03;;
2998;SDS011;1509;51.964;7.628;2023-07-24T08:21:35;4.50;;;3.50;;
2998;SDS011;1509;51.964;7.628;2023-07-24T08:24:02;6.67;;;4.43;;
2998;SDS011;1509;51.964;7.628;2023-07-24T08:26:28;5.80;;;3.63;;
2998;SDS011;1509;51.964;7.628;2023-07-24T08:28:53;5.37;;;4.30;;
2998;SDS011;1509;51.964;7.628;2023-07-24T08:31:22;7.23;;;4.40;;
2998;SDS011;1509;51.964;7.628;2023-07-24T08:33:48;6.77;;;4.23;;
2998;SDS011;1509;51.964;7.628;2023-07-24T08:36:13;6.70;;;5.07;;
2998;SDS011;1509;51.964;7.628;2023-07-24T08:38:40;5.17;;;3.60;;
2998;SDS011;1509;51.964;7.628;2023-07-24T08:41:08;5.27;;;4.00;;
2998;SDS011;1509;51.964;7.628;2023-07-24T08:43:39;5.73;;;3.80;;
2998;SDS011;1509;51.964;7.628;2023-07-24T08:46:06;6.00;;;4.20;;
2998;SDS011;1509;51.964;7.628;2023-07-24T08:48:33;5.43;;;4.57;;
2998;SDS011;1509;51.964;7.628;2023-07-24T08:51:03;4.60;;;3.60;;
2998;SDS011;1509;51.964;7.628;2023-07-24T08:53:32;4.63;;;3.50;;
2998;SDS011;1509;51.964;7.628;2023-07-24T08:56:08;4.67;;;3.37;;
2998;SDS011;1509;51.964;7.628;2023-07-24T08:58:35;4.90;;;2.80;;
2998;SDS011;1509;51.964;7.628;2023-07-24T09:01:07;3.97;;;3.03;;
2998;SDS011;1509;51.964;7.628;2023-07-24T09:03:33;3.67;;;2.60;;
2998;SDS011;1509;51.964;7.628;2023-07-24T09:06:00;3.90;;;2.53;;
2998;SDS011;1509;51.964;7.628;2023-07-24T09:08:33;3.37;;;2.47;;
2998;SDS011;1509;51.964;7.628;2023-07-24T09:11:00;3.40;;;2.30;;
2998;SDS011;1509;51.964;7.628;2023-07-24T09:13:28;3.60;;;3.00;;
2998;SDS011;1509;51.964;7.628;2023-07-24T09:15:54;2.73;;;2.43;;
2998;SDS011;1509;51.964;7.628;2023-07-24T09:18:24;3.77;;;2.13;;
2998;SDS011;1509;51.964;7.628;2023-07-24T09:20:50;4.57;;;2.90;;
2998;SDS011;1509;51.964;7.628;2023-07-24T09:23:16;4.13;;;2.63;;
2998;SDS011;1509;51.964;7.628;2023-07-24T09:25:52;2.80;;;2.37;;
2998;SDS011;1509;51.964;7.628;2023-07-24T09:28:18;3.50;;;2.30;;
2998;SDS011;1509;51.964;7.628;2023-07-24T09:30:56;2.97;;;2.00;;
2998;SDS011;1509;51.964;7.628;2023-07-24T09:33:23;2.10;;;1.80;;
2998;SDS011;1509;51.964;7.628;2023-07-24T09:36:03;2.37;;;1.80;;
2998;SDS011;1509;51.964;7.628;2023-07-24T09:38:29;2.63;;;2.00;;
2998;SDS011;1509;51.964;7.628;2023-07-24T09:40:57;2.60;;;1.80;;
2998;SDS011;1509;51.964;7.628;2023-07-24T09:43:24;3.53;;;2.13;;
2998;SDS011;1509;51.964;7.628;2023-07-24T09:45:51;3.17;;;2.30;;
2998;SDS011;1509;51.964;7.628;2023-07-24T09:48:18;4.90;;;2.73;;
2998;SDS011;1509;51.964;7.628;2023-07-24T09:50:48;5.87;;;2.60;;
2998;SDS011;1509;51.964;7.628;2023-07-24T09:53:20;3.37;;;2.23;;
2998;SDS011;1509;51.964;7.628;2023-07-24T09:55:58;4.90;;;3.60;;
2998;SDS011;1509;51.964;7.628;2023-07-24T09:58:26;3.57;;;2.80;;
2998;SDS011;1509;51.964;7.628;2023-07-24T10:00:53;4.10;;;2.70;;
2998;SDS011;1509;51.964;7.628;2023-07-24T10:03:20;3.87;;;2.93;;
2998;SDS011;1509;51.964;7.628;2023-07-24T10:05:47;3.60;;;2.73;;
2998;SDS011;1509;51.964;7.628;2023-07-24T10:08:17;3.67;;;2.50;;
2998;SDS011;1509;51.964;7.628;2023-07-24T10:10:44;5.60;;;3.63;;
2998;SDS011;1509;51.964;7.628;2023-07-24T10:13:10;2.57;;;2.00;;
2998;SDS011;1509;51.964;7.628;2023-07-24T10:15:40;3.10;;;2.30;;
2998;SDS011;1509;51.964;7.628;2023-07-24T10:18:07;4.30;;;3.00;;
2998;SDS011;1509;51.964;7.628;2023-07-24T10:20:34;3.67;;;2.90;;
2998;SDS011;1509;51.964;7.628;2023-07-24T10:23:03;5.50;;;2.43;;
2998;SDS011;1509;51.964;7.628;2023-07-24T10:25:30;7.50;;;3.00;;
2998;SDS011;1509;51.964;7.628;2023-07-24T10:28:00;6.77;;;3.43;;
2998;SDS011;1509;51.964;7.628;2023-07-24T10:30:32;4.73;;;3.10;;
2998;SDS011;1509;51.964;7.628;2023-07-24T10:33:18;3.80;;;2.90;;
2998;SDS011;1509;51.964;7.628;2023-07-24T10:35:55;3.60;;;2.63;;
2998;SDS011;1509;51.964;7.628;2023-07-24T10:38:35;4.67;;;3.00;;
2998;SDS011;1509;51.964;7.628;2023-07-24T10:41:03;4.30;;;3.40;;
2998;SDS011;1509;51.964;7.628;2023-07-24T10:43:39;5.23;;;3.53;;
2998;SDS011;1509;51.964;7.628;2023-07-24T10:46:06;5.90;;;3.30;;
2998;SDS011;1509;51.964;7.628;2023-07-24T10:48:31;4.20;;;3.37;;
2998;SDS011;1509;51.964;7.628;2023-07-24T10:50:57;6.40;;;3.23;;
2998;SDS011;1509;51.964;7.628;2023-07-24T10:53:23;3.73;;;3.20;;
2998;SDS011;1509;51.964;7.628;2023-07-24T10:55:49;6.80;;;3.57;;
2998;SDS011;1509;51.964;7.628;2023-07-24T10:58:16;4.90;;;3.10;;
2998;SDS011;1509;51.964;7.628;2023-07-24T11:00:42;7.23;;;3.23;;
2998;SDS011;1509;51.964;7.628;2023-07-24T11:03:09;6.87;;;3.70;;
2998;SDS011;1509;51.964;7.628;2023-07-24T11:05:39;4.40;;;3.17;;
2998;SDS011;1509;51.964;7.628;2023-07-24T11:08:12;3.33;;;2.63;;
2998;SDS011;1509;51.964;7.628;2023-07-24T11:10:49;5.17;;;2.73;;
2998;SDS011;1509;51.964;7.628;2023-07-24T11:13:17;4.47;;;3.37;;
2998;SDS011;1509;51.964;7.628;2023-07-24T11:15:46;4.13;;;2.60;;
2998;SDS011;1509;51.964;7.628;2023-07-24T11:18:13;6.17;;;3.00;;
2998;SDS011;1509;51.964;7.628;2023-07-24T11:20:45;3.97;;;2.73;;
2998;SDS011;1509;51.964;7.628;2023-07-24T11:23:13;4.97;;;2.70;;
2998;SDS011;1509;51.964;7.628;2023-07-24T11:25:39;3.77;;;2.80;;
2998;SDS011;1509;51.964;7.628;2023-07-24T11:28:06;4.10;;;2.97;;
2998;SDS011;1509;51.964;7.628;2023-07-24T11:30:33;4.30;;;2.70;;
2998;SDS011;1509;51.964;7.628;2023-07-24T11:33:00;6.10;;;3.00;;
2998;SDS011;1509;51.964;7.628;2023-07-24T11:35:27;3.63;;;3.20;;
2998;SDS011;1509;51.964;7.628;2023-07-24T11:37:53;3.80;;;3.20;;
2998;SDS011;1509;51.964;7.628;2023-07-24T11:40:19;3.33;;;2.87;;
2998;SDS011;1509;51.964;7.628;2023-07-24T11:42:46;2.97;;;2.53;;
2998;SDS011;1509;51.964;7.628;2023-07-24T11:45:13;4.30;;;3.33;;
2998;SDS011;1509;51.964;7.628;2023-07-24T11:47:43;4.07;;;3.00;;
2998;SDS011;1509;51.964;7.628;2023-07-24T11:50:10;4.80;;;2.90;;
2998;SDS011;1509;51.964;7.628;2023-07-24T11:52:42;2.90;;;2.37;;
2998;SDS011;1509;51.964;7.628;2023-07-24T11:55:16;3.37;;;2.33;;
2998;SDS011;1509;51.964;7.628;2023-07-24T11:57:43;5.67;;;2.87;;
2998;SDS011;1509;51.964;7.628;2023-07-24T12:00:20;3.33;;;2.90;;
2998;SDS011;1509;51.964;7.628;2023-07-24T12:02:47;4.87;;;2.57;;
2998;SDS011;1509;51.964;7.628;2023-07-24T12:05:13;3.37;;;2.60;;
2998;SDS011;1509;51.964;7.628;2023-07-24T12:07:39;4.33;;;2.87;;
2998;SDS011;1509;51.964;7.628;2023-07-24T12:10:07;5.20;;;2.73;;
2998;SDS011;1509;51.964;7.628;2023-07-24T12:12:36;4.90;;;2.63;;
2998;SDS011;1509;51.964;7.628;2023-07-24T12:15:09;5.03;;;3.60;;
2998;SDS011;1509;51.964;7.628;2023-07-24T12:17:35;5.30;;;4.50;;
2998;SDS011;1509;51.964;7.628;2023-07-24T12:20:02;5.37;;;4.87;;
2998;SDS011;1509;51.964;7.628;2023-07-24T12:22:29;5.87;;;5.27;;
2998;SDS011;1509;51.964;7.628;2023-07-24T12:24:55;5.40;;;4.23;;
2998;SDS011;1509;51.964;7.628;2023-07-24T12:27:21;7.03;;;4.87;;
2998;SDS011;1509;51.964;7.628;2023-07-24T12:29:47;5.13;;;4.63;;
2998;SDS011;1509;51.964;7.628;2023-07-24T12:32:12;5.87;;;4.50;;
2998;SDS011;1509;51.964;7.628;2023-07-24T12:34:38;5.50;;;5.00;;
2998;SDS011;1509;51.964;7.628;2023-07-24T12:37:03;5.63;;;5.00;;
2998;SDS011;1509;51.964;7.628;2023-07-24T12:39:29;9.20;;;5.53;;
2998;SDS011;1509;51.964;7.628;2023-07-24T12:41:55;6.73;;;6.13;;
2998;SDS011;1509;51.964;7.628;2023-07-24T12:44:20;7.80;;;6.30;;
2998;SDS011;1509;51.964;7.628;2023-07-24T12:46:46;6.53;;;5.90;;
2998;SDS011;1509;51.964;7.628;2023-07-24T12:49:12;16.87;;;7.17;;
2998;SDS011;1509;51.964;7.628;2023-07-24T12:51:38;14.30;;;7.70;;
2998;SDS011;1509;51.964;7.628;2023-07-24T12:54:03;9.17;;;7.17;;
2998;SDS011;1509;51.964;7.628;2023-07-24T12:56:29;10.93;;;8.50;;
2998;SDS011;1509;51.964;7.628;2023-07-24T12:58:54;9.13;;;8.20;;
2998;SDS011;1509;51.964;7.628;2023-07-24T13:01:20;9.37;;;6.90;;
2998;SDS011;1509;51.964;7.628;2023-07-24T13:03:46;11.43;;;8.27;;
2998;SDS011;1509;51.964;7.628;2023-07-24T13:06:11;7.87;;;6.67;;
2998;SDS011;1509;51.964;7.628;2023-07-24T13:08:37;9.67;;;7.00;;
2998;SDS011;1509;51.964;7.628;2023-07-24T13:11:03;5.87;;;4.97;;
2998;SDS011;1509;51.964;7.628;2023-07-24T13:13:28;12.43;;;5.00;;
2998;SDS011;1509;51.964;7.628;2023-07-24T13:15:55;6.30;;;4.43;;
2998;SDS011;1509;51.964;7.628;2023-07-24T13:18:21;5.67;;;4.70;;
2998;SDS011;1509;51.964;7.628;2023-07-24T13:20:46;5.20;;;4.00;;
2998;SDS011;1509;51.964;7.628;2023-07-24T13:23:12;4.90;;;3.67;;
2998;SDS011;1509;51.964;7.628;2023-07-24T13:25:38;5.60;;;3.50;;
2998;SDS011;1509;51.964;7.628;2023-07-24T13:28:03;4.30;;;3.30;;
2998;SDS011;1509;51.964;7.628;2023-07-24T13:30:29;3.33;;;2.73;;
2998;SDS011;1509;51.964;7.628;2023-07-24T13:32:54;3.40;;;2.73;;
2998;SDS011;1509;51.964;7.628;2023-07-24T13:35:20;3.47;;;3.00;;
2998;SDS011;1509;51.964;7.628;2023-07-24T13:37:46;4.47;;;3.13;;
2998;SDS011;1509;51.964;7.628;2023-07-24T13:40:11;3.40;;;2.90;;
2998;SDS011;1509;51.964;7.628;2023-07-24T13:42:37;3.43;;;2.70;;
2998;SDS011;1509;51.964;7.628;2023-07-24T13:45:03;3.20;;;2.50;;
2998;SDS011;1509;51.964;7.628;2023-07-24T13:47:28;3.10;;;2.73;;
2998;SDS011;1509;51.964;7.628;2023-07-24T13:49:54;3.60;;;3.10;;
2998;SDS011;1509;51.964;7.628;2023-07-24T13:52:20;4.03;;;3.00;;
2998;SDS011;1509;51.964;7.628;2023-07-24T13:54:46;3.90;;;3.50;;
2998;SDS011;1509;51.964;7.628;2023-07-24T13:57:12;4.70;;;3.87;;
2998;SDS011;1509;51.964;7.628;2023-07-24T13:59:40;5.33;;;4.00;;
2998;SDS011;1509;51.964;7.628;2023-07-24T14:02:06;4.80;;;4.10;;
2998;SDS011;1509;51.964;7.628;2023-07-24T14:04:32;4.40;;;3.53;;
2998;SDS011;1509;51.964;7.628;2023-07-24T14:06:57;5.73;;;4.60;;
2998;SDS011;1509;51.964;7.628;2023-07-24T14:09:23;6.37;;;4.53;;
2998;SDS011;1509;51.964;7.628;2023-07-24T14:11:48;4.93;;;4.40;;
2998;SDS011;1509;51.964;7.628;2023-07-24T14:14:15;7.03;;;5.53;;
2998;SDS011;1509;51.964;7.628;2023-07-24T14:16:42;5.30;;;4.80;;
2998;SDS011;1509;51.964;7.628;2023-07-24T14:19:08;6.23;;;5.50;;
2998;SDS011;1509;51.964;7.628;2023-07-24T14:21:33;6.60;;;5.50;;
2998;SDS011;1509;51.964;7.628;2023-07-24T14:23:59;5.90;;;4.67;;
2998;SDS011;1509;51.964;7.628;2023-07-24T14:26:25;6.57;;;5.60;;
2998;SDS011;1509;51.964;7.628;2023-07-24T14:28:50;5.83;;;4.70;;
2998;SDS011;1509;51.964;7.628;2023-07-24T14:31:16;6.37;;;5.30;;
2998;SDS011;1509;51.964;7.628;2023-07-24T14:33:41;7.67;;;6.13;;
2998;SDS011;1509;51.964;7.628;2023-07-24T14:36:07;5.80;;;5.20;;
2998;SDS011;1509;51.964;7.628;2023-07-24T14:38:33;7.90;;;5.70;;
2998;SDS011;1509;51.964;7.628;2023-07-24T14:40:58;6.87;;;6.17;;
2998;SDS011;1509;51.964;7.628;2023-07-24T14:43:24;8.27;;;6.20;;
2998;SDS011;1509;51.964;7.628;2023-07-24T14:45:49;6.10;;;5.40;;
2998;SDS011;1509;51.964;7.628;2023-07-24T14:48:15;6.87;;;6.23;;
2998;SDS011;1509;51.964;7.628;2023-07-24T14:50:41;6.70;;;6.00;;
2998;SDS011;1509;51.964;7.628;2023-07-24T14:53:07;7.13;;;5.67;;
2998;SDS011;1509;51.964;7.628;2023-07-24T14:55:33;5.37;;;4.87;;
2998;SDS011;1509;51.964;7.628;2023-07-24T14:57:58;6.00;;;5.20;;
2998;SDS011;1509;51.964;7.628;2023-07-24T15:00:24;6.17;;;5.00;;
2998;SDS011;1509;51.964;7.628;2023-07-24T15:02:49;5.40;;;4.50;;
2998;SDS011;1509;51.964;7.628;2023-07-24T15:05:15;4.60;;;3.80;;
2998;SDS011;1509;51.964;7.628;2023-07-24T15:07:40;6.13;;;4.20;;
2998;SDS011;1509;51.964;7.628;2023-07-24T15:10:06;7.30;;;4.50;;
2998;SDS011;1509;51.964;7.628;2023-07-24T15:12:32;5.17;;;4.50;;